Terminal Aerodrome Forecast
Issued by NWS

Home | Current Version | Previous Version | Text Only | Print | Product List | Glossary On
Versions: 1 2 3 4 5 6 7 8 9 10 11 12 13 14 15
625
FTAK31 PAJN 272320
TAFAKT
TAF
PAKT 272320Z 2800/2824 13008KT P6SM -RA SCT015 OVC030
     FM281800 14008KT P6SM -SHRA SCT020 OVC040=

USA.gov is the U.S. government's official web portal to all federal, state and local government web resources and services.